createdAt,value
2022-11-06T00:00:45.125Z,7.05
2022-11-06T00:01:45.183Z,7.00
2022-11-06T00:02:45.141Z,7.03
2022-11-06T00:03:45.073Z,7.10
2022-11-06T00:04:45.048Z,6.92
2022-11-06T00:05:45.038Z,6.97
2022-11-06T00:06:45.010Z,6.93
2022-11-06T00:07:45.035Z,6.97
2022-11-06T00:08:44.970Z,6.96
2022-11-06T00:09:44.955Z,7.00
2022-11-06T00:10:44.933Z,6.96
2022-11-06T00:11:44.919Z,6.87
2022-11-06T00:12:44.895Z,6.89
2022-11-06T00:13:44.879Z,6.85
2022-11-06T00:14:44.854Z,6.86
2022-11-06T00:15:44.839Z,6.92
2022-11-06T00:16:44.816Z,6.90
2022-11-06T00:17:44.809Z,6.86
2022-11-06T00:18:44.785Z,6.83
2022-11-06T00:19:44.760Z,6.86
2022-11-06T00:20:44.750Z,6.85
2022-11-06T00:21:44.725Z,6.82
2022-11-06T00:22:44.698Z,6.83
2022-11-06T00:23:44.683Z,6.80
2022-11-06T00:24:44.661Z,6.83
2022-11-06T00:25:44.648Z,6.85
2022-11-06T00:26:47.547Z,6.77
2022-11-06T00:27:44.609Z,6.83
2022-11-06T00:28:44.588Z,6.82
2022-11-06T00:29:44.572Z,6.77
2022-11-06T00:30:44.547Z,6.71
2022-11-06T00:31:44.531Z,6.72
2022-11-06T00:32:44.508Z,6.68
2022-11-06T00:33:44.493Z,6.74
2022-11-06T00:34:44.470Z,6.75
2022-11-06T00:35:44.454Z,6.68
2022-11-06T00:36:44.432Z,6.74
2022-11-06T00:37:44.413Z,6.71
2022-11-06T00:38:44.391Z,6.77
2022-11-06T00:39:44.385Z,6.70
2022-11-06T00:40:44.352Z,6.74
2022-11-06T00:41:44.342Z,6.68
2022-11-06T00:42:44.313Z,6.64
2022-11-06T00:43:44.295Z,6.75
2022-11-06T00:44:44.271Z,6.64
2022-11-06T00:45:44.255Z,6.59
2022-11-06T00:46:44.239Z,6.60
2022-11-06T00:47:44.216Z,6.64
2022-11-06T00:48:44.199Z,6.59
2022-11-06T00:49:44.177Z,6.68
2022-11-06T00:50:44.159Z,6.65
2022-11-06T00:51:44.142Z,6.60
2022-11-06T00:52:44.122Z,6.65
2022-11-06T00:53:44.107Z,6.64
2022-11-06T00:54:44.082Z,6.65
2022-11-06T00:55:44.064Z,6.70
2022-11-06T00:56:44.041Z,6.65
2022-11-06T00:57:44.028Z,6.65
2022-11-06T00:58:44.003Z,6.65
2022-11-06T00:59:43.990Z,6.60
2022-11-06T01:00:43.974Z,6.70
2022-11-06T01:01:44.072Z,6.64
2022-11-06T01:02:44.099Z,6.57
2022-11-06T01:03:43.905Z,6.56
2022-11-06T01:04:43.885Z,6.54
2022-11-06T01:05:43.868Z,6.52
2022-11-06T01:06:43.848Z,6.68
2022-11-06T01:07:43.829Z,6.59
2022-11-06T01:08:43.809Z,6.62
2022-11-06T01:09:43.796Z,6.65
2022-11-06T01:10:43.769Z,6.65
2022-11-06T01:12:11.113Z,6.64
2022-11-06T01:12:43.733Z,6.68
2022-11-06T01:13:43.711Z,6.65
2022-11-06T01:14:43.699Z,6.64
2022-11-06T01:15:43.674Z,6.70
2022-11-06T01:16:43.657Z,6.64
2022-11-06T01:17:43.635Z,6.59
2022-11-06T01:18:43.614Z,6.62
2022-11-06T01:19:43.596Z,6.72
2022-11-06T01:20:43.575Z,6.67
2022-11-06T01:21:43.560Z,6.72
2022-11-06T01:22:43.545Z,6.77
2022-11-06T01:23:43.521Z,6.67
2022-11-06T01:24:43.576Z,6.74
2022-11-06T01:25:43.480Z,6.77
2022-11-06T01:26:58.800Z,6.77
2022-11-06T01:27:43.443Z,6.74
2022-11-06T01:28:43.420Z,6.74
2022-11-06T01:29:43.401Z,6.72
2022-11-06T01:30:43.379Z,6.75
2022-11-06T01:31:43.361Z,6.85
2022-11-06T01:32:43.343Z,6.77
2022-11-06T01:33:43.324Z,6.77
2022-11-06T01:34:43.301Z,6.64
2022-11-06T01:35:43.282Z,6.72
2022-11-06T01:36:43.266Z,6.77
2022-11-06T01:37:43.245Z,6.65
2022-11-06T01:38:43.227Z,6.71
2022-11-06T01:39:43.210Z,6.68
2022-11-06T01:40:43.185Z,6.72
2022-11-06T01:41:43.168Z,6.78
2022-11-06T01:42:43.150Z,6.71
2022-11-06T01:43:43.131Z,6.77
2022-11-06T01:44:43.139Z,6.70
2022-11-06T01:45:43.092Z,6.75
2022-11-06T01:46:43.070Z,6.78
2022-11-06T01:47:43.051Z,6.71
2022-11-06T01:48:43.033Z,6.72
2022-11-06T01:49:43.013Z,6.72
2022-11-06T01:50:42.993Z,6.72
2022-11-06T01:51:42.977Z,6.78
2022-11-06T01:52:42.955Z,6.72
2022-11-06T01:53:42.934Z,6.74
2022-11-06T01:54:42.916Z,6.78
2022-11-06T01:55:42.895Z,6.74
2022-11-06T01:56:42.874Z,6.64
2022-11-06T01:57:42.858Z,6.77
2022-11-06T01:58:42.836Z,6.77
2022-11-06T01:59:42.826Z,6.72
2022-11-06T02:00:42.799Z,6.74
2022-11-06T02:01:42.875Z,6.72
2022-11-06T02:02:42.920Z,6.70
2022-11-06T02:03:42.739Z,6.68
2022-11-06T02:04:42.720Z,6.62
2022-11-06T02:05:42.703Z,6.62
2022-11-06T02:06:42.683Z,6.65
2022-11-06T02:07:42.666Z,6.56
2022-11-06T02:08:42.639Z,6.64
2022-11-06T02:09:42.623Z,6.59
2022-11-06T02:10:42.604Z,6.57
2022-11-06T02:11:42.587Z,6.57
2022-11-06T02:12:42.564Z,6.56
2022-11-06T02:13:42.551Z,6.56
2022-11-06T02:14:42.529Z,6.52
2022-11-06T02:15:42.507Z,6.50
2022-11-06T02:16:42.486Z,6.47
2022-11-06T02:17:42.471Z,6.47
2022-11-06T02:18:42.447Z,6.47
2022-11-06T02:19:42.428Z,6.49
2022-11-06T02:20:42.409Z,6.44
2022-11-06T02:21:42.392Z,6.39
2022-11-06T02:22:42.368Z,6.43
2022-11-06T02:23:42.351Z,6.35
2022-11-06T02:24:42.331Z,6.41
2022-11-06T02:25:42.313Z,6.39
2022-11-06T02:26:42.294Z,6.26
2022-11-06T02:27:42.272Z,6.43
2022-11-06T02:28:42.254Z,6.34
2022-11-06T02:29:42.235Z,6.44
2022-11-06T02:30:42.212Z,6.44
2022-11-06T02:31:42.199Z,6.36
2022-11-06T02:32:42.174Z,6.38
2022-11-06T02:33:42.156Z,6.38
2022-11-06T02:34:42.134Z,6.25
2022-11-06T02:35:42.118Z,6.34
2022-11-06T02:36:42.095Z,6.26
2022-11-06T02:37:42.079Z,6.28
2022-11-06T02:38:42.058Z,6.26
2022-11-06T02:39:42.038Z,6.22
2022-11-06T02:40:42.016Z,6.20
2022-11-06T02:41:41.998Z,6.22
2022-11-06T02:42:41.978Z,6.28
2022-11-06T02:43:41.962Z,6.26
2022-11-06T02:44:41.939Z,6.22
2022-11-06T02:45:41.922Z,6.22
2022-11-06T02:46:41.902Z,6.29
2022-11-06T02:47:41.880Z,6.22
2022-11-06T02:48:41.863Z,6.28
2022-11-06T02:49:41.843Z,6.32
2022-11-06T02:50:41.823Z,6.20
2022-11-06T02:51:41.803Z,6.25
2022-11-06T02:52:41.781Z,6.26
2022-11-06T02:53:41.764Z,6.25
2022-11-06T02:54:41.747Z,6.32
2022-11-06T02:55:41.724Z,6.29
2022-11-06T02:56:41.708Z,6.36
2022-11-06T02:57:41.687Z,6.29
2022-11-06T02:58:46.264Z,6.29
2022-11-06T02:59:41.644Z,6.31
2022-11-06T03:00:41.627Z,6.31
2022-11-06T03:01:41.884Z,6.26
2022-11-06T03:02:41.663Z,6.26
2022-11-06T03:03:41.565Z,6.26
2022-11-06T03:04:41.548Z,6.34
2022-11-06T03:05:41.531Z,6.32
2022-11-06T03:06:41.508Z,6.32
2022-11-06T03:07:41.488Z,6.22
2022-11-06T03:08:41.474Z,6.19
2022-11-06T03:09:41.453Z,6.20
2022-11-06T03:10:41.434Z,6.12
2022-11-06T03:11:41.411Z,6.20
2022-11-06T03:12:41.390Z,6.20
2022-11-06T03:13:41.373Z,6.12
2022-11-06T03:14:41.352Z,6.02
2022-11-06T03:15:41.333Z,6.09
2022-11-06T03:16:41.314Z,6.02
2022-11-06T03:17:41.295Z,6.01
2022-11-06T03:18:41.275Z,6.02
2022-11-06T03:19:41.255Z,5.95
2022-11-06T03:20:41.235Z,5.94
2022-11-06T03:21:41.213Z,5.97
2022-11-06T03:22:41.199Z,5.94
2022-11-06T03:23:41.177Z,5.84
2022-11-06T03:24:41.157Z,5.81
2022-11-06T03:25:41.135Z,5.84
2022-11-06T03:26:41.117Z,5.76
2022-11-06T03:27:41.096Z,5.77
2022-11-06T03:28:41.076Z,5.76
2022-11-06T03:29:41.056Z,5.73
2022-11-06T03:30:41.038Z,5.79
2022-11-06T03:31:41.016Z,5.70
2022-11-06T03:32:41.000Z,5.72
2022-11-06T03:33:40.979Z,5.77
2022-11-06T03:34:40.956Z,5.73
2022-11-06T03:35:40.939Z,5.69
2022-11-06T03:36:40.921Z,5.74
2022-11-06T03:37:40.904Z,5.73
2022-11-06T03:38:42.335Z,5.80
2022-11-06T03:39:40.858Z,5.76
2022-11-06T03:40:40.840Z,5.67
2022-11-06T03:41:40.820Z,5.72
2022-11-06T03:42:40.801Z,5.74
2022-11-06T03:43:40.778Z,5.70
2022-11-06T03:44:40.759Z,5.72
2022-11-06T03:45:40.740Z,5.72
2022-11-06T03:46:40.722Z,5.76
2022-11-06T03:47:40.703Z,5.77
2022-11-06T03:48:40.683Z,5.81
2022-11-06T03:49:40.664Z,5.67
2022-11-06T03:50:40.645Z,5.73
2022-11-06T03:51:40.619Z,5.77
2022-11-06T03:52:43.132Z,5.74
2022-11-06T03:53:40.582Z,5.76
2022-11-06T03:54:40.567Z,5.77
2022-11-06T03:55:40.543Z,5.73
2022-11-06T03:56:40.524Z,5.80
2022-11-06T03:57:40.502Z,5.76
2022-11-06T03:58:40.550Z,5.80
2022-11-06T03:59:40.469Z,5.76
2022-11-06T04:00:40.444Z,5.84
2022-11-06T04:01:40.489Z,5.84
2022-11-06T04:02:40.553Z,5.92
2022-11-06T04:03:40.390Z,5.90
2022-11-06T04:04:40.368Z,5.90
2022-11-06T04:05:40.609Z,5.90
2022-11-06T04:06:40.329Z,5.87
2022-11-06T04:07:40.306Z,5.90
2022-11-06T04:08:40.286Z,5.88
2022-11-06T04:09:40.264Z,5.97
2022-11-06T04:10:40.247Z,5.97
2022-11-06T04:11:40.227Z,5.97
2022-11-06T04:12:40.211Z,5.99
2022-11-06T04:13:40.188Z,5.99
2022-11-06T04:14:40.171Z,6.01
2022-11-06T04:15:40.147Z,6.02
2022-11-06T04:16:40.129Z,6.01
2022-11-06T04:17:40.107Z,5.95
2022-11-06T04:18:40.090Z,5.92
2022-11-06T04:19:40.069Z,6.02
2022-11-06T04:20:40.053Z,5.87
2022-11-06T04:21:40.061Z,5.84
2022-11-06T04:22:40.010Z,5.90
2022-11-06T04:23:39.988Z,5.84
2022-11-06T04:24:39.974Z,5.79
2022-11-06T04:25:39.950Z,5.79
2022-11-06T04:26:39.930Z,5.77
2022-11-06T04:27:39.912Z,5.77
2022-11-06T04:28:39.892Z,5.81
2022-11-06T04:29:39.871Z,5.79
2022-11-06T04:30:39.852Z,5.72
2022-11-06T04:31:39.829Z,5.69
2022-11-06T04:32:39.813Z,5.65
2022-11-06T04:33:39.791Z,5.65
2022-11-06T04:34:39.774Z,5.62
2022-11-06T04:35:39.751Z,5.62
2022-11-06T04:36:39.733Z,5.62
2022-11-06T04:37:39.715Z,5.58
2022-11-06T04:38:39.694Z,5.62
2022-11-06T04:39:39.672Z,5.62
2022-11-06T04:40:39.659Z,5.64
2022-11-06T04:41:39.635Z,5.62
2022-11-06T04:42:39.614Z,5.62
2022-11-06T04:43:39.593Z,5.62
2022-11-06T04:44:39.581Z,5.62
2022-11-06T04:45:39.555Z,5.65
2022-11-06T04:46:39.537Z,5.65
2022-11-06T04:47:39.518Z,5.62
2022-11-06T04:48:39.495Z,5.51
2022-11-06T04:49:39.474Z,5.64
2022-11-06T04:50:39.458Z,5.59
2022-11-06T04:51:39.436Z,5.62
2022-11-06T04:52:39.417Z,5.67
2022-11-06T04:53:39.396Z,5.62
2022-11-06T04:54:39.379Z,5.64
2022-11-06T04:55:39.353Z,5.67
2022-11-06T04:56:44.705Z,5.51
2022-11-06T04:57:39.318Z,5.55
2022-11-06T04:58:39.301Z,5.51
2022-11-06T04:59:39.275Z,5.64
2022-11-06T05:00:39.303Z,5.51
2022-11-06T05:01:39.380Z,5.58
2022-11-06T05:02:39.220Z,5.49
2022-11-06T05:03:39.198Z,5.44
2022-11-06T05:04:39.179Z,5.46
2022-11-06T05:05:39.159Z,5.41
2022-11-06T05:06:39.142Z,5.44
2022-11-06T05:07:39.117Z,5.43
2022-11-06T05:08:39.099Z,5.33
2022-11-06T05:09:39.080Z,5.28
2022-11-06T05:10:39.057Z,5.38
2022-11-06T05:11:39.040Z,5.33
2022-11-06T05:12:39.020Z,5.25
2022-11-06T05:13:39.000Z,5.33
2022-11-06T05:14:38.979Z,5.23
2022-11-06T05:15:38.961Z,5.18
2022-11-06T05:16:38.940Z,5.22
2022-11-06T05:17:38.922Z,5.12
2022-11-06T05:18:38.898Z,5.13
2022-11-06T05:19:38.878Z,5.08
2022-11-06T05:20:38.860Z,5.10
2022-11-06T05:21:38.845Z,5.12
2022-11-06T05:22:38.819Z,5.18
2022-11-06T05:23:38.800Z,5.07
2022-11-06T05:24:38.779Z,5.13
2022-11-06T05:25:38.760Z,5.08
2022-11-06T05:26:38.741Z,5.10
2022-11-06T05:27:38.719Z,5.08
2022-11-06T05:28:38.704Z,5.10
2022-11-06T05:29:38.680Z,5.05
2022-11-06T05:30:38.668Z,5.10
2022-11-06T05:31:38.648Z,5.01
2022-11-06T05:32:38.619Z,4.98
2022-11-06T05:33:38.602Z,5.04
2022-11-06T05:34:38.581Z,4.95
2022-11-06T05:35:38.563Z,4.97
2022-11-06T05:36:38.539Z,4.98
2022-11-06T05:37:38.520Z,4.95
2022-11-06T05:38:38.499Z,4.97
2022-11-06T05:39:41.781Z,4.95
2022-11-06T05:40:38.463Z,4.95
2022-11-06T05:41:38.446Z,5.02
2022-11-06T05:42:38.420Z,4.97
2022-11-06T05:43:38.399Z,5.01
2022-11-06T05:44:38.381Z,5.00
2022-11-06T05:45:38.362Z,4.90
2022-11-06T05:46:53.579Z,5.00
2022-11-06T05:47:38.319Z,4.95
2022-11-06T05:48:38.302Z,5.01
2022-11-06T05:49:38.278Z,5.02
2022-11-06T05:50:38.265Z,4.98
2022-11-06T05:51:38.241Z,5.02
2022-11-06T05:52:38.220Z,5.00
2022-11-06T05:53:38.196Z,4.95
2022-11-06T05:54:38.181Z,5.02
2022-11-06T05:55:38.162Z,5.02
2022-11-06T05:56:38.142Z,5.00
2022-11-06T05:57:38.262Z,5.01
2022-11-06T05:58:38.102Z,4.97
2022-11-06T05:59:38.078Z,5.00
2022-11-06T06:00:38.064Z,5.07
2022-11-06T06:01:38.142Z,5.05
2022-11-06T06:02:38.210Z,5.08
2022-11-06T06:03:38.000Z,5.05
2022-11-06T06:04:37.980Z,5.08
2022-11-06T06:05:37.957Z,5.05
2022-11-06T06:06:37.937Z,4.97
2022-11-06T06:07:37.920Z,5.01
2022-11-06T06:08:37.903Z,5.15
2022-11-06T06:09:37.875Z,4.95
2022-11-06T06:10:37.858Z,5.01
2022-11-06T06:11:37.842Z,4.92
2022-11-06T06:12:37.822Z,4.92
2022-11-06T06:13:37.799Z,5.05
2022-11-06T06:14:37.778Z,4.90
2022-11-06T06:15:37.773Z,4.94
2022-11-06T06:16:37.738Z,4.94
2022-11-06T06:17:37.716Z,4.90
2022-11-06T06:18:37.699Z,4.86
2022-11-06T06:19:37.674Z,4.83
2022-11-06T06:20:37.660Z,4.84
2022-11-06T06:21:37.637Z,4.87
2022-11-06T06:22:37.618Z,4.87
2022-11-06T06:23:37.597Z,4.79
2022-11-06T06:24:37.651Z,4.76
2022-11-06T06:25:37.563Z,4.79
2022-11-06T06:26:37.540Z,4.78
2022-11-06T06:27:37.531Z,4.78
2022-11-06T06:28:37.499Z,4.78
2022-11-06T06:29:37.476Z,4.79
2022-11-06T06:30:37.458Z,4.78
2022-11-06T06:31:37.435Z,4.70
2022-11-06T06:32:37.414Z,4.71
2022-11-06T06:33:37.395Z,4.67
2022-11-06T06:34:37.378Z,4.67
2022-11-06T06:35:37.359Z,4.66
2022-11-06T06:36:37.336Z,4.68
2022-11-06T06:37:37.313Z,4.66
2022-11-06T06:38:37.295Z,4.52
2022-11-06T06:39:37.275Z,4.46
2022-11-06T06:40:37.254Z,4.46
2022-11-06T06:41:37.246Z,4.40
2022-11-06T06:42:37.222Z,4.45
2022-11-06T06:43:37.191Z,4.40
2022-11-06T06:44:37.173Z,4.30
2022-11-06T06:45:37.154Z,4.30
2022-11-06T06:46:37.133Z,4.30
2022-11-06T06:47:37.112Z,4.25
2022-11-06T06:48:37.096Z,4.16
2022-11-06T06:49:37.075Z,4.28
2022-11-06T06:50:37.053Z,4.22
2022-11-06T06:51:37.032Z,4.18
2022-11-06T06:52:37.012Z,4.18
2022-11-06T06:53:36.991Z,4.22
2022-11-06T06:54:36.973Z,4.24
2022-11-06T06:55:36.952Z,4.21
2022-11-06T06:56:36.935Z,4.27
2022-11-06T06:57:36.911Z,4.42
2022-11-06T06:58:36.891Z,4.45
2022-11-06T06:59:36.869Z,4.50
2022-11-06T07:00:36.866Z,4.60
2022-11-06T07:01:36.981Z,4.64
2022-11-06T07:02:36.813Z,4.64
2022-11-06T07:03:36.787Z,4.68
2022-11-06T07:04:36.777Z,4.78
2022-11-06T07:05:36.748Z,4.94
2022-11-06T07:06:36.728Z,4.92
2022-11-06T07:07:36.707Z,5.02
2022-11-06T07:08:36.688Z,5.16
2022-11-06T07:09:36.666Z,5.12
2022-11-06T07:10:36.649Z,5.25
2022-11-06T07:11:36.637Z,5.36
2022-11-06T07:12:36.608Z,5.38
2022-11-06T07:13:36.757Z,5.47
2022-11-06T07:14:36.569Z,5.55
2022-11-06T07:15:36.554Z,5.61
2022-11-06T07:16:36.528Z,5.76
2022-11-06T07:17:36.603Z,5.77
2022-11-06T07:18:36.486Z,5.74
2022-11-06T07:19:36.468Z,5.91
2022-11-06T07:20:36.447Z,6.02
2022-11-06T07:21:36.425Z,6.15
2022-11-06T07:22:37.590Z,6.29
2022-11-06T07:23:36.386Z,6.36
2022-11-06T07:24:36.365Z,6.46
2022-11-06T07:25:36.347Z,6.54
2022-11-06T07:26:36.329Z,6.52
2022-11-06T07:27:36.897Z,6.60
2022-11-06T07:28:36.292Z,6.68
2022-11-06T07:29:36.267Z,6.68
2022-11-06T07:30:36.249Z,6.89
2022-11-06T07:31:36.228Z,6.78
2022-11-06T07:32:36.207Z,6.90
2022-11-06T07:33:36.189Z,6.95
2022-11-06T07:34:36.171Z,7.01
2022-11-06T07:35:36.150Z,7.00
2022-11-06T07:36:36.131Z,7.05
2022-11-06T07:37:36.111Z,7.22
2022-11-06T07:38:36.096Z,7.22
2022-11-06T07:39:36.071Z,7.26
2022-11-06T07:40:36.051Z,7.31
2022-11-06T07:41:36.034Z,7.50
2022-11-06T07:42:40.701Z,7.50
2022-11-06T07:43:35.993Z,7.58
2022-11-06T07:44:35.974Z,7.64
2022-11-06T07:45:35.956Z,7.61
2022-11-06T07:46:35.937Z,7.64
2022-11-06T07:47:35.916Z,7.75
2022-11-06T07:48:35.898Z,7.69
2022-11-06T07:49:36.013Z,7.69
2022-11-06T07:50:35.860Z,7.75
2022-11-06T07:51:35.839Z,7.81
2022-11-06T07:52:35.821Z,7.88
2022-11-06T07:53:35.805Z,7.80
2022-11-06T07:54:35.782Z,7.96
2022-11-06T07:55:40.977Z,8.03
2022-11-06T07:56:35.746Z,8.11
2022-11-06T07:57:35.731Z,8.13
2022-11-06T07:58:35.705Z,8.11
2022-11-06T07:59:35.686Z,8.21
2022-11-06T08:00:35.721Z,8.28
2022-11-06T08:01:35.776Z,8.35
2022-11-06T08:02:35.686Z,8.39
2022-11-06T08:03:35.613Z,8.57
2022-11-06T08:04:35.593Z,8.53
2022-11-06T08:05:35.575Z,8.56
2022-11-06T08:06:35.558Z,8.71
2022-11-06T08:07:35.538Z,8.74
2022-11-06T08:08:35.520Z,8.75
2022-11-06T08:09:35.499Z,8.72
2022-11-06T08:10:35.482Z,8.86
2022-11-06T08:11:35.464Z,8.90
2022-11-06T08:12:35.448Z,8.93
2022-11-06T08:13:35.425Z,9.00
2022-11-06T08:14:41.057Z,9.02
2022-11-06T08:15:35.391Z,9.11
2022-11-06T08:16:35.375Z,9.18
2022-11-06T08:17:35.353Z,9.34
2022-11-06T08:18:35.340Z,9.33
2022-11-06T08:19:35.316Z,9.44
2022-11-06T08:20:35.297Z,9.45
2022-11-06T08:21:35.298Z,9.52
2022-11-06T08:22:35.261Z,9.64
2022-11-06T08:23:35.246Z,9.63
2022-11-06T08:24:35.223Z,9.70
2022-11-06T08:25:35.210Z,9.82
2022-11-06T08:26:35.190Z,9.74
2022-11-06T08:27:35.169Z,9.97
2022-11-06T08:28:35.155Z,10.00
2022-11-06T08:29:40.864Z,10.00
2022-11-06T08:30:35.119Z,10.02
2022-11-06T08:31:35.105Z,10.06
2022-11-06T08:32:35.083Z,10.12
2022-11-06T08:33:35.086Z,10.17
2022-11-06T08:34:35.046Z,10.12
2022-11-06T08:35:35.073Z,10.18
2022-11-06T08:36:35.017Z,10.34
2022-11-06T08:37:35.014Z,10.45
2022-11-06T08:38:34.988Z,10.42
2022-11-06T08:39:34.966Z,10.42
2022-11-06T08:40:34.943Z,10.49
2022-11-06T08:41:34.926Z,10.49
2022-11-06T08:42:34.908Z,10.53
2022-11-06T08:43:34.891Z,10.65
2022-11-06T08:44:34.878Z,10.71
2022-11-06T08:45:34.857Z,10.82
2022-11-06T08:46:34.842Z,10.77
2022-11-06T08:47:34.823Z,10.87
2022-11-06T08:48:34.805Z,10.84
2022-11-06T08:49:34.788Z,10.98
2022-11-06T08:50:34.768Z,10.98
2022-11-06T08:51:34.759Z,11.10
2022-11-06T08:52:34.737Z,11.18
2022-11-06T08:53:34.879Z,11.20
2022-11-06T08:54:34.703Z,11.26
2022-11-06T08:55:34.685Z,11.30
2022-11-06T08:56:34.668Z,11.38
2022-11-06T08:57:34.665Z,11.43
2022-11-06T08:58:34.636Z,11.53
2022-11-06T08:59:34.623Z,11.56
2022-11-06T09:00:34.604Z,11.62
2022-11-06T09:01:34.727Z,11.70
2022-11-06T09:02:34.604Z,11.78
2022-11-06T09:03:34.560Z,11.95
2022-11-06T09:04:38.764Z,11.99
2022-11-06T09:05:34.525Z,12.00
2022-11-06T09:06:34.502Z,12.08
2022-11-06T09:07:34.488Z,12.21
2022-11-06T09:08:34.470Z,12.39
2022-11-06T09:09:34.460Z,12.51
2022-11-06T09:10:34.439Z,12.62
2022-11-06T09:11:34.423Z,12.70
2022-11-06T09:12:34.411Z,12.80
2022-11-06T09:13:34.392Z,12.91
2022-11-06T09:14:34.375Z,13.01
2022-11-06T09:15:34.363Z,13.02
2022-11-06T09:16:34.343Z,13.13
2022-11-06T09:17:34.328Z,13.16
2022-11-06T09:18:34.311Z,13.33
2022-11-06T09:19:34.298Z,13.31
2022-11-06T09:20:34.280Z,13.49
2022-11-06T09:21:34.269Z,13.58
2022-11-06T09:22:34.251Z,13.61
2022-11-06T09:23:34.234Z,13.73
2022-11-06T09:24:57.595Z,13.78
2022-11-06T09:25:34.205Z,13.87
2022-11-06T09:26:34.186Z,14.00
2022-11-06T09:27:34.175Z,13.97
2022-11-06T09:28:34.156Z,14.03
2022-11-06T09:29:34.146Z,14.05
2022-11-06T09:30:34.127Z,14.08
2022-11-06T09:31:34.111Z,14.07
2022-11-06T09:32:34.098Z,14.16
2022-11-06T09:33:34.084Z,14.25
2022-11-06T09:34:34.065Z,14.36
2022-11-06T09:35:34.049Z,14.31
2022-11-06T09:36:34.035Z,14.44
2022-11-06T09:37:34.024Z,14.52
2022-11-06T09:38:34.007Z,14.63
2022-11-06T09:39:33.990Z,14.63
2022-11-06T09:40:33.978Z,14.63
2022-11-06T09:41:33.964Z,14.74
2022-11-06T09:42:33.944Z,14.78
2022-11-06T09:44:33.913Z,14.99
2022-11-06T09:45:33.902Z,15.00
2022-11-06T09:46:33.885Z,15.04
2022-11-06T09:47:33.869Z,15.17
2022-11-06T09:48:33.855Z,15.22
2022-11-06T09:49:33.840Z,15.19
2022-11-06T09:50:33.827Z,15.19
2022-11-06T09:51:33.818Z,15.27
2022-11-06T09:52:33.796Z,15.15
2022-11-06T09:53:33.783Z,15.14
2022-11-06T09:54:33.767Z,15.25
2022-11-06T09:55:33.758Z,15.27
2022-11-06T09:56:33.737Z,15.29
2022-11-06T09:57:33.725Z,15.41
2022-11-06T09:58:33.708Z,15.47
2022-11-06T09:59:33.694Z,15.45
2022-11-06T10:00:33.678Z,15.55
2022-11-06T10:01:33.770Z,15.60
2022-11-06T10:02:33.692Z,15.65
2022-11-06T10:03:33.658Z,15.67
2022-11-06T10:04:33.622Z,15.67
2022-11-06T10:05:33.611Z,15.62
2022-11-06T10:06:33.591Z,15.69
2022-11-06T10:07:33.581Z,15.67
2022-11-06T10:08:33.564Z,15.63
2022-11-06T10:09:33.548Z,15.65
2022-11-06T10:10:33.533Z,15.54
2022-11-06T10:11:33.521Z,15.54
2022-11-06T10:12:33.507Z,15.60
2022-11-06T10:13:33.496Z,15.63
2022-11-06T10:14:33.477Z,15.55
2022-11-06T10:15:33.463Z,15.62
2022-11-06T10:16:33.448Z,15.63
2022-11-06T10:17:33.433Z,15.59
2022-11-06T10:18:33.420Z,15.60
2022-11-06T10:19:33.411Z,15.48
2022-11-06T10:20:33.389Z,15.44
2022-11-06T10:21:33.375Z,15.33
2022-11-06T10:22:33.360Z,15.05
2022-11-06T10:23:33.347Z,15.11
2022-11-06T10:24:33.329Z,14.93
2022-11-06T10:25:33.318Z,14.90
2022-11-06T10:26:33.851Z,14.92
2022-11-06T10:27:33.287Z,14.81
2022-11-06T10:28:33.273Z,14.73
2022-11-06T10:29:33.268Z,14.74
2022-11-06T10:30:33.252Z,14.86
2022-11-06T10:31:33.235Z,14.89
2022-11-06T10:32:33.222Z,14.81
2022-11-06T10:33:33.954Z,14.85
2022-11-06T10:34:33.189Z,14.81
2022-11-06T10:35:33.178Z,15.00
2022-11-06T10:36:33.155Z,14.90
2022-11-06T10:37:33.150Z,14.94
2022-11-06T10:38:33.129Z,15.04
2022-11-06T10:39:33.119Z,15.00
2022-11-06T10:40:33.100Z,15.02
2022-11-06T10:41:33.090Z,15.07
2022-11-06T10:42:37.828Z,15.10
2022-11-06T10:43:33.056Z,15.26
2022-11-06T10:44:33.044Z,15.43
2022-11-06T10:45:33.032Z,15.50
2022-11-06T10:46:33.017Z,15.62
2022-11-06T10:47:32.995Z,15.69
2022-11-06T10:48:37.139Z,15.85
2022-11-06T10:49:32.980Z,15.81
2022-11-06T10:50:32.965Z,15.80
2022-11-06T10:51:32.946Z,15.88
2022-11-06T10:52:32.953Z,15.92
2022-11-06T10:53:32.913Z,15.96
2022-11-06T10:54:32.900Z,15.99
2022-11-06T10:55:32.884Z,16.00
2022-11-06T10:56:32.889Z,16.02
2022-11-06T10:57:32.858Z,16.16
2022-11-06T10:58:32.839Z,16.21
2022-11-06T10:59:32.830Z,16.17
2022-11-06T11:00:32.810Z,16.24
2022-11-06T11:01:32.974Z,16.24
2022-11-06T11:02:32.812Z,16.36
2022-11-06T11:03:32.772Z,16.41
2022-11-06T11:04:32.759Z,16.47
2022-11-06T11:05:32.745Z,16.44
2022-11-06T11:06:32.724Z,16.57
2022-11-06T11:07:32.718Z,16.54
2022-11-06T11:08:32.697Z,16.47
2022-11-06T11:09:32.688Z,16.44
2022-11-06T11:10:32.672Z,16.54
2022-11-06T11:11:32.656Z,16.41
2022-11-06T11:12:32.644Z,16.50
2022-11-06T11:13:32.631Z,16.54
2022-11-06T11:14:32.610Z,16.49
2022-11-06T11:15:32.604Z,16.51
2022-11-06T11:16:32.587Z,16.58
2022-11-06T11:17:32.576Z,16.68
2022-11-06T11:18:32.559Z,16.87
2022-11-06T11:19:32.544Z,17.16
2022-11-06T11:20:32.529Z,17.19
2022-11-06T11:21:32.516Z,17.38
2022-11-06T11:22:33.436Z,17.60
2022-11-06T11:23:32.591Z,17.84
2022-11-06T11:24:32.472Z,18.03
2022-11-06T11:25:32.462Z,18.18
2022-11-06T11:26:32.464Z,18.36
2022-11-06T11:27:32.431Z,18.36
2022-11-06T11:28:32.428Z,18.34
2022-11-06T11:29:32.410Z,18.23
2022-11-06T11:30:32.401Z,18.19
2022-11-06T11:31:32.378Z,18.09
2022-11-06T11:32:32.379Z,17.91
2022-11-06T11:33:32.352Z,17.84
2022-11-06T11:34:32.342Z,17.87
2022-11-06T11:35:32.323Z,17.84
2022-11-06T11:36:32.315Z,17.93
2022-11-06T11:37:32.303Z,17.94
2022-11-06T11:38:32.285Z,18.00
2022-11-06T11:39:32.272Z,18.06
2022-11-06T11:40:32.274Z,18.26
2022-11-06T11:41:32.256Z,18.33
2022-11-06T11:42:32.231Z,18.41
2022-11-06T11:43:32.217Z,18.28
2022-11-06T11:44:32.213Z,18.16
2022-11-06T11:45:32.189Z,18.21
2022-11-06T11:46:32.184Z,18.26
2022-11-06T11:47:32.165Z,18.34
2022-11-06T11:48:32.156Z,18.42
2022-11-06T11:49:32.151Z,18.49
2022-11-06T11:50:32.129Z,18.53
2022-11-06T11:51:32.141Z,18.68
2022-11-06T11:52:32.100Z,18.74
2022-11-06T11:53:32.087Z,18.64
2022-11-06T11:54:32.078Z,18.66
2022-11-06T11:55:32.063Z,18.71
2022-11-06T11:56:58.187Z,18.71
2022-11-06T11:57:32.041Z,18.85
2022-11-06T11:58:32.029Z,18.94
2022-11-06T11:59:32.016Z,18.96
2022-11-06T12:00:32.002Z,18.98
2022-11-06T12:01:32.022Z,19.01
2022-11-06T12:02:32.077Z,19.11
2022-11-06T12:03:31.960Z,19.08
2022-11-06T12:04:31.953Z,19.04
2022-11-06T12:05:31.937Z,18.98
2022-11-06T12:06:31.928Z,19.00
2022-11-06T12:07:31.911Z,19.08
2022-11-06T12:08:31.900Z,19.08
2022-11-06T12:09:31.886Z,18.98
2022-11-06T12:10:31.882Z,18.91
2022-11-06T12:11:31.859Z,18.73
2022-11-06T12:12:31.850Z,18.70
2022-11-06T12:13:31.847Z,18.71
2022-11-06T12:14:31.822Z,18.71
2022-11-06T12:15:31.810Z,18.73
2022-11-06T12:16:31.798Z,18.71
2022-11-06T12:17:31.786Z,18.88
2022-11-06T12:18:31.771Z,18.85
2022-11-06T12:19:31.767Z,18.66
2022-11-06T12:20:31.756Z,18.33
2022-11-06T12:21:31.736Z,17.91
2022-11-06T12:22:31.724Z,17.63
2022-11-06T12:23:31.704Z,17.17
2022-11-06T12:24:31.699Z,16.94
2022-11-06T12:25:31.679Z,16.54
2022-11-06T12:26:31.672Z,16.17
2022-11-06T12:27:31.691Z,15.75
2022-11-06T12:28:31.640Z,15.47
2022-11-06T12:29:31.632Z,15.11
2022-11-06T12:30:31.619Z,14.89
2022-11-06T12:31:31.593Z,14.63
2022-11-06T12:32:31.589Z,14.52
2022-11-06T12:34:04.646Z,14.48
2022-11-06T12:34:31.560Z,14.37
2022-11-06T12:35:31.547Z,14.33
2022-11-06T12:36:31.557Z,14.34
2022-11-06T12:37:31.518Z,14.52
2022-11-06T12:38:31.507Z,14.73
2022-11-06T12:39:31.486Z,14.94
2022-11-06T12:40:31.476Z,15.07
2022-11-06T12:41:31.455Z,15.08
2022-11-06T12:42:31.442Z,15.17
2022-11-06T12:43:31.426Z,15.30
2022-11-06T12:44:31.412Z,15.50
2022-11-06T12:45:31.429Z,15.80
2022-11-06T12:46:31.379Z,16.13
2022-11-06T12:47:31.364Z,16.68
2022-11-06T12:48:31.351Z,16.99
2022-11-06T12:49:31.335Z,17.31
2022-11-06T12:50:31.322Z,17.71
2022-11-06T12:51:31.308Z,17.88
2022-11-06T12:52:31.297Z,18.06
2022-11-06T12:53:31.280Z,18.16
2022-11-06T12:54:31.291Z,18.09
2022-11-06T12:55:31.263Z,18.09
2022-11-06T12:56:31.239Z,17.87
2022-11-06T12:57:31.227Z,17.71
2022-11-06T12:58:31.216Z,17.50
2022-11-06T12:59:31.198Z,17.39
2022-11-06T13:00:32.051Z,17.19
2022-11-06T13:01:31.278Z,17.13
2022-11-06T13:02:31.241Z,16.89
2022-11-06T13:03:31.142Z,16.59
2022-11-06T13:04:31.129Z,16.36
2022-11-06T13:05:31.117Z,16.06
2022-11-06T13:06:31.101Z,15.84
2022-11-06T13:07:31.087Z,15.59
2022-11-06T13:08:31.074Z,15.45
2022-11-06T13:09:31.080Z,15.29
2022-11-06T13:10:31.071Z,15.04